createdAt,value
2016-12-02T00:00:48.690Z,64.58
2016-12-02T00:01:57.395Z,65.15
2016-12-02T00:03:06.114Z,64.67
2016-12-02T00:04:14.843Z,64.29
2016-12-02T00:05:23.523Z,64.77
2016-12-02T00:06:32.205Z,65.34
2016-12-02T00:07:40.894Z,66.09
2016-12-02T00:08:49.574Z,66.09
2016-12-02T00:09:58.305Z,66.28
2016-12-02T00:11:06.984Z,66.09
2016-12-02T00:12:15.665Z,66.28
2016-12-02T00:13:24.350Z,66.38
2016-12-02T00:14:33.033Z,68.17
2016-12-02T00:15:41.715Z,68.36
2016-12-02T00:16:50.403Z,68.42
2016-12-02T00:17:59.088Z,68.71
2016-12-02T00:19:08.093Z,69.56
2016-12-02T00:20:16.773Z,70.18
2016-12-02T00:21:25.459Z,70.65
2016-12-02T00:22:34.142Z,71.31
2016-12-02T00:23:42.829Z,71.12
2016-12-02T00:24:51.521Z,70.75
2016-12-02T00:26:00.203Z,70.84
2016-12-02T00:27:08.897Z,71.12
2016-12-02T00:28:17.575Z,71.69
2016-12-02T00:29:26.250Z,71.98
2016-12-02T00:30:34.931Z,72.17
2016-12-02T00:31:43.617Z,72.17
2016-12-02T00:32:52.303Z,72.17
2016-12-02T00:34:00.986Z,71.6
2016-12-02T00:35:09.669Z,71.07
2016-12-02T00:36:18.348Z,70.97
2016-12-02T00:37:27.029Z,70.4
2016-12-02T00:38:35.714Z,70.4
2016-12-02T00:39:44.394Z,70.59
2016-12-02T00:40:53.078Z,69.84
2016-12-02T00:42:02.073Z,69.18
2016-12-02T00:43:10.758Z,69.18
2016-12-02T00:44:19.445Z,68.9
2016-12-02T00:45:28.131Z,69.46
2016-12-02T00:46:36.812Z,69.09
2016-12-02T00:47:45.495Z,69.27
2016-12-02T00:48:54.171Z,68.99
2016-12-02T00:50:02.852Z,69.84
2016-12-02T00:51:11.532Z,69.65
2016-12-02T00:52:20.210Z,69.84
2016-12-02T00:53:28.886Z,70.03
2016-12-02T00:54:37.566Z,69.46
2016-12-02T00:55:46.257Z,69.9
2016-12-02T00:56:54.939Z,70.75
2016-12-02T00:58:03.647Z,70.65
2016-12-02T00:59:12.337Z,70.84
2016-12-02T01:00:21.022Z,70.5
2016-12-02T01:01:29.701Z,69.27
2016-12-02T01:02:38.387Z,69.37
2016-12-02T01:03:47.064Z,68.99
2016-12-02T01:04:55.745Z,68.33
2016-12-02T01:06:04.424Z,68.61
2016-12-02T01:07:13.134Z,68.99
2016-12-02T01:08:21.815Z,69.18
2016-12-02T01:09:30.495Z,69.18
2016-12-02T01:10:39.186Z,68.61
2016-12-02T01:11:47.867Z,67.66
2016-12-02T01:12:56.547Z,67.57
2016-12-02T01:14:05.227Z,67.1
2016-12-02T01:15:13.904Z,67.85
2016-12-02T01:16:22.586Z,67.85
2016-12-02T01:17:31.268Z,68.14
2016-12-02T01:18:39.948Z,68.42
2016-12-02T01:19:48.634Z,68.61
2016-12-02T01:20:57.313Z,68.52
2016-12-02T01:22:05.996Z,68.52
2016-12-02T01:23:14.679Z,67.76
2016-12-02T01:24:23.689Z,68.52
2016-12-02T01:25:32.371Z,68.23
2016-12-02T01:26:41.056Z,67.76
2016-12-02T01:27:49.740Z,67.38
2016-12-02T01:28:58.431Z,67.76
2016-12-02T01:30:07.115Z,68.33
2016-12-02T01:31:15.800Z,69.18
2016-12-02T01:32:24.480Z,69.37
2016-12-02T01:33:33.160Z,69.18
2016-12-02T01:34:41.869Z,69.56
2016-12-02T01:35:50.550Z,69.18
2016-12-02T01:36:59.260Z,69.74
2016-12-02T01:38:07.945Z,69.46
2016-12-02T01:39:16.627Z,69.56
2016-12-02T01:40:25.626Z,70.31
2016-12-02T01:41:34.303Z,69.93
2016-12-02T01:42:42.988Z,70.5
2016-12-02T01:43:51.672Z,70.97
2016-12-02T01:45:00.350Z,70.69
2016-12-02T01:46:09.038Z,70.18
2016-12-02T01:47:17.722Z,70.75
2016-12-02T01:48:26.404Z,70.94
2016-12-02T01:49:35.089Z,70.56
2016-12-02T01:50:43.770Z,70.56
2016-12-02T01:51:52.457Z,70.47
2016-12-02T01:53:01.138Z,70.84
2016-12-02T01:54:09.821Z,70.56
2016-12-02T01:55:18.500Z,71.31
2016-12-02T01:56:27.180Z,71.03
2016-12-02T01:57:35.892Z,70.56
2016-12-02T01:58:44.585Z,70.84
2016-12-02T01:59:53.263Z,70.75
2016-12-02T02:01:01.945Z,70.56
2016-12-02T02:02:10.630Z,70.84
2016-12-02T02:03:19.310Z,71.22
2016-12-02T02:04:27.989Z,70.75
2016-12-02T02:05:36.678Z,70.56
2016-12-02T02:06:45.361Z,70.94
2016-12-02T02:07:54.048Z,70.37
2016-12-02T02:09:02.730Z,70.47
2016-12-02T02:10:11.416Z,70.47
2016-12-02T02:11:20.095Z,70.18
2016-12-02T02:12:28.773Z,70.84
2016-12-02T02:13:37.461Z,71.22
2016-12-02T02:14:46.147Z,71.41
2016-12-02T02:15:54.825Z,71.79
2016-12-02T02:17:03.503Z,72.26
2016-12-02T02:18:12.188Z,71.98
2016-12-02T02:19:20.882Z,71.88
2016-12-02T02:20:29.560Z,71.31
2016-12-02T02:21:38.245Z,70.84
2016-12-02T02:22:46.926Z,70.69
2016-12-02T02:23:55.605Z,69.93
2016-12-02T02:25:04.287Z,70.21
2016-12-02T02:26:12.968Z,70.31
2016-12-02T02:27:21.652Z,70.21
2016-12-02T02:28:30.336Z,70.59
2016-12-02T02:29:39.022Z,70.12
2016-12-02T02:30:47.706Z,70
2016-12-02T02:31:56.385Z,70.09
2016-12-02T02:33:05.066Z,70.21
2016-12-02T02:34:13.752Z,70.03
2016-12-02T02:35:22.435Z,70.75
2016-12-02T02:36:31.114Z,70.94
2016-12-02T02:37:39.795Z,71.12
2016-12-02T02:38:48.479Z,71.31
2016-12-02T02:39:57.169Z,70.84
2016-12-02T02:41:05.855Z,70.5
2016-12-02T02:42:14.538Z,70.59
2016-12-02T02:43:23.219Z,70.65
2016-12-02T02:44:31.905Z,70.69
2016-12-02T02:45:40.584Z,70.78
2016-12-02T02:46:49.287Z,70.65
2016-12-02T02:47:57.968Z,70.47
2016-12-02T02:49:06.653Z,70.56
2016-12-02T02:50:15.334Z,70.84
2016-12-02T02:51:24.024Z,70.84
2016-12-02T02:52:32.703Z,70.78
2016-12-02T02:53:41.384Z,69.93
2016-12-02T02:54:50.067Z,68.9
2016-12-02T02:55:58.749Z,68.23
2016-12-02T02:57:07.432Z,68.61
2016-12-02T02:58:16.110Z,67.98
2016-12-02T02:59:24.795Z,67.79
2016-12-02T03:00:33.478Z,66.94
2016-12-02T03:01:42.164Z,66.66
2016-12-02T03:02:50.877Z,67.03
2016-12-02T03:03:59.555Z,67.6
2016-12-02T03:05:08.587Z,67.32
2016-12-02T03:06:17.270Z,67.03
2016-12-02T03:07:25.962Z,66.47
2016-12-02T03:08:34.654Z,66.66
2016-12-02T03:09:43.333Z,67.6
2016-12-02T03:10:52.012Z,67.6
2016-12-02T03:12:00.694Z,67.6
2016-12-02T03:13:09.382Z,68.36
2016-12-02T03:14:18.065Z,68.71
2016-12-02T03:15:27.064Z,69.37
2016-12-02T03:16:35.746Z,70.03
2016-12-02T03:17:44.430Z,70.31
2016-12-02T03:18:53.118Z,71.12
2016-12-02T03:20:01.800Z,71.98
2016-12-02T03:21:10.485Z,71.22
2016-12-02T03:22:19.163Z,71.5
2016-12-02T03:23:27.846Z,71.98
2016-12-02T03:24:36.529Z,71.69
2016-12-02T03:25:45.213Z,71.26
2016-12-02T03:26:53.888Z,71.45
2016-12-02T03:28:02.888Z,70.88
2016-12-02T03:29:11.565Z,70.59
2016-12-02T03:30:20.247Z,70.03
2016-12-02T03:31:28.937Z,70.03
2016-12-02T03:32:37.617Z,69.46
2016-12-02T03:33:46.302Z,69.56
2016-12-02T03:34:54.983Z,69.37
2016-12-02T03:36:03.667Z,69.27
2016-12-02T03:37:12.347Z,68.8
2016-12-02T03:38:21.028Z,68.99
2016-12-02T03:39:29.714Z,68.9
2016-12-02T03:40:38.407Z,69.27
2016-12-02T03:41:47.109Z,70.03
2016-12-02T03:42:55.788Z,70.21
2016-12-02T03:44:04.472Z,68.27
2016-12-02T03:45:13.150Z,66.47
2016-12-02T03:46:21.832Z,65.18
2016-12-02T03:47:30.524Z,65.18
2016-12-02T03:48:39.209Z,64.71
2016-12-02T03:49:47.892Z,64.61
2016-12-02T03:50:56.571Z,64.61
2016-12-02T03:52:05.254Z,64.42
2016-12-02T03:53:13.970Z,63.57
2016-12-02T03:54:22.656Z,63.04
2016-12-02T03:55:31.334Z,63.32
2016-12-02T03:56:40.022Z,63.7
2016-12-02T03:57:48.734Z,64.26
2016-12-02T03:58:57.423Z,64.52
2016-12-02T04:00:06.101Z,64.42
2016-12-02T04:01:14.787Z,64.71
2016-12-02T04:02:23.475Z,65.28
2016-12-02T04:03:32.161Z,65.28
2016-12-02T04:04:40.844Z,65.18
2016-12-02T04:05:49.534Z,64.42
2016-12-02T04:06:58.217Z,64.8
2016-12-02T04:08:06.914Z,65.09
2016-12-02T04:09:15.604Z,64.8
2016-12-02T04:10:24.289Z,65.18
2016-12-02T04:11:32.971Z,64.33
2016-12-02T04:12:41.660Z,64.61
2016-12-02T04:13:50.341Z,64.07
2016-12-02T04:14:59.024Z,63.57
2016-12-02T04:16:07.713Z,63.79
2016-12-02T04:17:16.401Z,63.7
2016-12-02T04:18:25.089Z,63.51
2016-12-02T04:19:33.775Z,62.94
2016-12-02T04:20:42.453Z,62.56
2016-12-02T04:21:51.136Z,63.32
2016-12-02T04:22:59.824Z,62.75
2016-12-02T04:24:08.514Z,63.13
2016-12-02T04:25:17.195Z,62.66
2016-12-02T04:26:25.878Z,63.32
2016-12-02T04:27:34.580Z,62.47
2016-12-02T04:28:43.264Z,62.94
2016-12-02T04:29:51.944Z,63.04
2016-12-02T04:31:00.950Z,62.94
2016-12-02T04:32:09.635Z,63.23
2016-12-02T04:33:18.318Z,63.51
2016-12-02T04:34:27.032Z,63.42
2016-12-02T04:35:35.721Z,63.42
2016-12-02T04:36:44.407Z,63.79
2016-12-02T04:37:53.127Z,63.32
2016-12-02T04:39:01.811Z,63.42
2016-12-02T04:40:10.496Z,63.7
2016-12-02T04:41:19.181Z,63.7
2016-12-02T04:42:27.870Z,63.04
2016-12-02T04:43:36.555Z,63.23
2016-12-02T04:44:45.237Z,62.85
2016-12-02T04:45:53.920Z,63.32
2016-12-02T04:47:02.605Z,63.51
2016-12-02T04:48:11.292Z,63.32
2016-12-02T04:49:19.993Z,63.6
2016-12-02T04:50:28.674Z,64.64
2016-12-02T04:51:37.355Z,64.26
2016-12-02T04:52:46.052Z,64.45
2016-12-02T04:53:54.742Z,65.47
2016-12-02T04:55:03.429Z,65.21
2016-12-02T04:56:12.127Z,64.55
2016-12-02T04:57:20.820Z,64.45
2016-12-02T04:58:29.504Z,64.74
2016-12-02T04:59:38.194Z,64.36
2016-12-02T05:00:46.878Z,64.83
2016-12-02T05:01:55.562Z,64.83
2016-12-02T05:03:04.248Z,65.12
2016-12-02T05:04:12.931Z,66.03
2016-12-02T05:05:21.617Z,66.22
2016-12-02T05:06:30.308Z,66.22
2016-12-02T05:07:38.989Z,66.41
2016-12-02T05:08:47.690Z,66.5
2016-12-02T05:09:56.380Z,65.94
2016-12-02T05:11:05.068Z,64.64
2016-12-02T05:12:13.786Z,65.02
2016-12-02T05:13:22.837Z,64.55
2016-12-02T05:14:31.546Z,64.17
2016-12-02T05:15:40.234Z,64.64
2016-12-02T05:16:48.923Z,65.21
2016-12-02T05:17:57.609Z,65.21
2016-12-02T05:19:06.290Z,65.21
2016-12-02T05:20:14.977Z,65.78
2016-12-02T05:21:23.664Z,65.78
2016-12-02T05:22:32.346Z,66.53
2016-12-02T05:23:41.027Z,67.26
2016-12-02T05:24:49.728Z,66.98
2016-12-02T05:25:58.416Z,67.17
2016-12-02T05:27:07.102Z,67.26
2016-12-02T05:28:15.781Z,67.74
2016-12-02T05:29:24.466Z,68.21
2016-12-02T05:30:33.150Z,67.55
2016-12-02T05:31:41.837Z,67.45
2016-12-02T05:32:50.517Z,68.02
2016-12-02T05:33:59.228Z,67.83
2016-12-02T05:35:07.945Z,68.3
2016-12-02T05:36:16.624Z,67.83
2016-12-02T05:37:25.311Z,67.17
2016-12-02T05:38:33.994Z,66.98
2016-12-02T05:39:42.674Z,67.55
2016-12-02T05:40:51.359Z,69.25
2016-12-02T05:42:00.042Z,70.2
2016-12-02T05:43:08.732Z,69.82
2016-12-02T05:44:17.417Z,69.72
2016-12-02T05:45:26.411Z,69.25
2016-12-02T05:46:35.119Z,69.34
2016-12-02T05:47:43.800Z,69.34
2016-12-02T05:48:52.511Z,69.44
2016-12-02T05:50:01.194Z,69.72
2016-12-02T05:51:09.888Z,70.01
2016-12-02T05:52:18.574Z,69.34
2016-12-02T05:53:27.261Z,69.78
2016-12-02T05:54:35.946Z,70.06
2016-12-02T05:55:44.944Z,70.73
2016-12-02T05:56:53.630Z,71.58
2016-12-02T05:58:02.322Z,71.67
2016-12-02T05:59:11.007Z,72.24
2016-12-02T06:00:19.699Z,71.77
2016-12-02T06:01:28.390Z,71.48
2016-12-02T06:02:37.075Z,71.39
2016-12-02T06:03:45.757Z,71.23
2016-12-02T06:04:54.496Z,71.04
2016-12-02T06:06:03.501Z,70.29
2016-12-02T06:07:12.205Z,71.01
2016-12-02T06:08:20.895Z,71.11
2016-12-02T06:09:29.607Z,70.63
2016-12-02T06:10:38.295Z,70.82
2016-12-02T06:11:46.988Z,70.92
2016-12-02T06:12:55.676Z,70.73
2016-12-02T06:14:04.358Z,71.39
2016-12-02T06:15:13.046Z,70.54
2016-12-02T06:16:21.729Z,70.73
2016-12-02T06:17:30.447Z,70.44
2016-12-02T06:18:39.134Z,70.44
2016-12-02T06:19:47.818Z,70.82
2016-12-02T06:20:56.511Z,70.16
2016-12-02T06:22:05.194Z,71.01
2016-12-02T06:23:13.878Z,70.63
2016-12-02T06:24:22.560Z,70.92
2016-12-02T06:25:31.246Z,70.73
2016-12-02T06:26:39.928Z,70.92
2016-12-02T06:27:48.612Z,70.25
2016-12-02T06:28:57.298Z,70.35
2016-12-02T06:30:05.979Z,70.92
2016-12-02T06:31:14.659Z,71.39
2016-12-02T06:32:23.340Z,71.11
2016-12-02T06:33:32.123Z,71.58
2016-12-02T06:34:40.813Z,71.67
2016-12-02T06:35:49.523Z,71.39
2016-12-02T06:36:58.207Z,70.82
2016-12-02T06:38:06.886Z,70.25
2016-12-02T06:39:15.595Z,70.44
2016-12-02T06:40:24.594Z,70.44
2016-12-02T06:41:33.283Z,70.48
2016-12-02T06:42:41.969Z,70.06
2016-12-02T06:43:50.655Z,70.29
2016-12-02T06:44:59.340Z,70.2
2016-12-02T06:46:08.023Z,69.34
2016-12-02T06:47:16.708Z,69.06
2016-12-02T06:48:25.392Z,69.25
2016-12-02T06:49:34.075Z,68.87
2016-12-02T06:50:42.759Z,68.87
2016-12-02T06:51:51.449Z,69.06
2016-12-02T06:53:00.135Z,69.25
2016-12-02T06:54:08.823Z,69.02
2016-12-02T06:55:17.505Z,68.96
2016-12-02T06:56:26.192Z,69.25
2016-12-02T06:57:34.875Z,68.49
2016-12-02T06:58:43.559Z,68.59
2016-12-02T06:59:52.249Z,68.12
2016-12-02T07:01:00.937Z,67.55
2016-12-02T07:02:09.639Z,67.45
2016-12-02T07:03:18.319Z,67.17
2016-12-02T07:04:27.007Z,66.98
2016-12-02T07:05:35.686Z,66.88
2016-12-02T07:06:44.369Z,66.88
2016-12-02T07:07:53.051Z,67.07
2016-12-02T07:09:01.732Z,67.74
2016-12-02T07:10:10.421Z,68.08
2016-12-02T07:11:19.108Z,68.02
2016-12-02T07:12:27.792Z,68.02
2016-12-02T07:13:36.480Z,67.17
2016-12-02T07:14:45.192Z,66.88
2016-12-02T07:15:53.876Z,67.17
2016-12-02T07:17:02.560Z,67.17
2016-12-02T07:18:11.319Z,67.26
2016-12-02T07:19:20.013Z,67.36
2016-12-02T07:20:28.697Z,67.26
2016-12-02T07:21:37.726Z,66.98
2016-12-02T07:22:46.437Z,67.83
2016-12-02T07:23:55.126Z,68.08
2016-12-02T07:25:03.809Z,67.79
2016-12-02T07:26:12.501Z,68.17
2016-12-02T07:27:21.196Z,67.79
2016-12-02T07:28:29.886Z,67.6
2016-12-02T07:29:38.883Z,67.7
2016-12-02T07:30:47.569Z,67.79
2016-12-02T07:31:56.268Z,68.55
2016-12-02T07:33:04.947Z,68.36
2016-12-02T07:34:13.636Z,68.02
2016-12-02T07:35:22.317Z,67.79
2016-12-02T07:36:31.001Z,67.89
2016-12-02T07:37:39.682Z,67.64
2016-12-02T07:38:48.365Z,67.74
2016-12-02T07:39:57.052Z,67.45
2016-12-02T07:41:05.747Z,67.07
2016-12-02T07:42:14.428Z,66.98
2016-12-02T07:43:23.113Z,66.98
2016-12-02T07:44:31.827Z,66.79
2016-12-02T07:45:40.511Z,66.6
2016-12-02T07:46:49.194Z,66.5
2016-12-02T07:47:57.882Z,66.69
2016-12-02T07:49:06.566Z,66.5
2016-12-02T07:50:15.251Z,66.5
2016-12-02T07:51:23.927Z,66.31
2016-12-02T07:52:32.626Z,66.69
2016-12-02T07:53:41.309Z,67.26
2016-12-02T07:54:49.995Z,67.55
2016-12-02T07:55:58.696Z,66.98
2016-12-02T07:57:07.380Z,67.45
2016-12-02T07:58:16.376Z,67.07
2016-12-02T07:59:25.060Z,67.07
2016-12-02T08:00:33.756Z,67.74
2016-12-02T08:01:42.453Z,67.07
2016-12-02T08:02:51.163Z,66.79
2016-12-02T08:03:59.845Z,67.45
2016-12-02T08:05:08.538Z,67.55
2016-12-02T08:06:17.220Z,67.74
2016-12-02T08:07:25.904Z,67.83
2016-12-02T08:08:34.589Z,68.02
2016-12-02T08:09:43.271Z,68.59
2016-12-02T08:10:51.964Z,68.96
2016-12-02T08:12:00.644Z,68.4
2016-12-02T08:13:09.327Z,68.3
2016-12-02T08:14:18.011Z,68.21
2016-12-02T08:15:26.694Z,68.68
2016-12-02T08:16:35.377Z,67.83
2016-12-02T08:17:44.059Z,67.74
2016-12-02T08:18:52.739Z,67.45
2016-12-02T08:20:01.423Z,67.26
2016-12-02T08:21:10.119Z,67.55
2016-12-02T08:22:18.803Z,67.45
2016-12-02T08:23:27.490Z,67.64
2016-12-02T08:24:36.173Z,67.74
2016-12-02T08:25:44.867Z,66.88
2016-12-02T08:26:53.557Z,66.98
2016-12-02T08:28:02.250Z,67.36
2016-12-02T08:29:10.936Z,66.79
2016-12-02T08:30:19.616Z,66.31
2016-12-02T08:31:28.334Z,66.98
2016-12-02T08:32:37.025Z,67.26
2016-12-02T08:33:45.719Z,66.69
2016-12-02T08:34:54.413Z,66.98
2016-12-02T08:36:03.094Z,67.45
2016-12-02T08:37:11.782Z,67.45
2016-12-02T08:38:20.468Z,68.12
2016-12-02T08:39:29.181Z,67.93
2016-12-02T08:40:37.868Z,67.64
2016-12-02T08:41:46.552Z,67.64
2016-12-02T08:42:55.553Z,67.93
2016-12-02T08:44:04.242Z,67.55
2016-12-02T08:45:12.930Z,67.64
2016-12-02T08:46:22.250Z,67.45
2016-12-02T08:47:30.933Z,67.07
2016-12-02T08:48:39.628Z,67.07
2016-12-02T08:49:48.317Z,66.69
2016-12-02T08:50:57.004Z,66.79
2016-12-02T08:52:05.725Z,66.22
2016-12-02T08:53:14.440Z,66.13
2016-12-02T08:54:23.131Z,65.94
2016-12-02T08:55:31.819Z,65.84
2016-12-02T08:56:40.510Z,65.94
2016-12-02T08:57:49.251Z,65.56
2016-12-02T08:58:57.951Z,65.75
2016-12-02T09:00:06.950Z,64.9
2016-12-02T09:01:15.640Z,65.56
2016-12-02T09:02:24.323Z,65.28
2016-12-02T09:03:33.008Z,64.71
2016-12-02T09:04:41.694Z,64.42
2016-12-02T09:05:50.378Z,64.8
2016-12-02T09:06:59.062Z,64.23
2016-12-02T09:08:07.748Z,64.71
2016-12-02T09:09:16.435Z,64.33
2016-12-02T09:10:25.119Z,64.52
2016-12-02T09:11:33.816Z,63.85
2016-12-02T09:12:42.526Z,64.04
2016-12-02T09:13:51.215Z,63.67
2016-12-02T09:14:59.895Z,64.04
2016-12-02T09:16:08.589Z,63.76
2016-12-02T09:17:17.277Z,63.76
2016-12-02T09:18:25.964Z,63.85
2016-12-02T09:19:34.702Z,63.39
2016-12-02T09:20:43.386Z,63.48
2016-12-02T09:21:52.074Z,63.23
2016-12-02T09:23:00.786Z,63.2
2016-12-02T09:24:09.470Z,63.04
2016-12-02T09:25:18.161Z,62.85
2016-12-02T09:26:26.843Z,62.47
2016-12-02T09:27:35.532Z,63.04
2016-12-02T09:28:44.219Z,62.85
2016-12-02T09:29:52.906Z,62.56
2016-12-02T09:31:01.594Z,62.75
2016-12-02T09:32:10.282Z,62.47
2016-12-02T09:33:18.965Z,62.56
2016-12-02T09:34:27.647Z,62.47
2016-12-02T09:35:36.333Z,62.66
2016-12-02T09:36:45.021Z,62.47
2016-12-02T09:37:53.704Z,62.66
2016-12-02T09:39:02.386Z,62.56
2016-12-02T09:40:11.081Z,62.09
2016-12-02T09:41:19.776Z,62.28
2016-12-02T09:42:28.470Z,62.09
2016-12-02T09:43:37.157Z,62.28
2016-12-02T09:44:45.845Z,62.09
2016-12-02T09:45:54.562Z,62.18
2016-12-02T09:47:03.569Z,62.18
2016-12-02T09:48:12.261Z,62.47
2016-12-02T09:49:20.942Z,62.09
2016-12-02T09:50:29.938Z,62.28
2016-12-02T09:51:38.633Z,62.66
2016-12-02T09:52:47.316Z,62.56
2016-12-02T09:53:56.006Z,61.99
2016-12-02T09:55:04.696Z,62.66
2016-12-02T09:56:13.407Z,62.28
2016-12-02T09:57:22.093Z,62.47
2016-12-02T09:58:30.775Z,62.28
2016-12-02T09:59:39.462Z,62.28
2016-12-02T10:00:48.153Z,62.18
2016-12-02T10:01:56.864Z,61.71
2016-12-02T10:03:05.552Z,61.71
2016-12-02T10:04:14.235Z,61.71
2016-12-02T10:05:22.924Z,61.52
2016-12-02T10:06:31.607Z,61.71
2016-12-02T10:07:40.287Z,61.43
2016-12-02T10:08:48.973Z,61.71
2016-12-02T10:09:57.663Z,61.43
2016-12-02T10:11:06.352Z,61.52
2016-12-02T10:12:15.043Z,62.37
2016-12-02T10:13:23.737Z,61.99
2016-12-02T10:14:32.421Z,61.71
2016-12-02T10:15:41.111Z,61.8
2016-12-02T10:16:49.798Z,62.28
2016-12-02T10:17:58.486Z,61.71
2016-12-02T10:19:07.171Z,61.8
2016-12-02T10:20:15.863Z,62.09
2016-12-02T10:21:24.552Z,61.99
2016-12-02T10:22:33.239Z,62.09
2016-12-02T10:23:41.924Z,62.09
2016-12-02T10:24:50.645Z,62.18
2016-12-02T10:25:59.334Z,62.37
2016-12-02T10:27:08.013Z,62.09
2016-12-02T10:28:16.697Z,61.9
2016-12-02T10:29:25.379Z,61.08
2016-12-02T10:30:34.069Z,60.03
2016-12-02T10:31:42.756Z,59.28
2016-12-02T10:32:51.446Z,58.36
2016-12-02T10:34:00.131Z,58.26
2016-12-02T10:35:08.819Z,58.26
2016-12-02T10:36:17.511Z,57.6
2016-12-02T10:37:26.196Z,57.51
2016-12-02T10:38:34.882Z,58.07
2016-12-02T10:39:43.569Z,57.51
2016-12-02T10:40:52.260Z,57.23
2016-12-02T10:42:01.020Z,57.04
2016-12-02T10:43:09.710Z,56.94
2016-12-02T10:44:18.400Z,56.3
2016-12-02T10:45:27.090Z,56.18
2016-12-02T10:46:35.776Z,55.83
2016-12-02T10:47:44.460Z,56.02
2016-12-02T10:48:53.151Z,55.17
2016-12-02T10:50:01.842Z,55.07
2016-12-02T10:51:10.648Z,55.07
2016-12-02T10:52:19.379Z,54.98
2016-12-02T10:53:28.062Z,54.88
2016-12-02T10:54:36.748Z,54.5
2016-12-02T10:55:45.439Z,54.5
2016-12-02T10:56:54.129Z,54.5
2016-12-02T10:58:02.814Z,53.84
2016-12-02T10:59:11.935Z,54.03
2016-12-02T11:00:20.621Z,54.03
2016-12-02T11:01:29.310Z,53.94
2016-12-02T11:02:38.012Z,53.49
2016-12-02T11:03:46.722Z,53.11
2016-12-02T11:04:55.435Z,53.02
2016-12-02T11:06:04.154Z,53.2
2016-12-02T11:07:12.847Z,52.92
2016-12-02T11:08:26.793Z,52.54
2016-12-02T11:09:35.497Z,51.87
2016-12-02T11:10:44.191Z,51.9
2016-12-02T11:11:52.903Z,52
2016-12-02T11:13:01.594Z,51.33
2016-12-02T11:14:10.333Z,50.86
2016-12-02T11:15:19.020Z,50.67
2016-12-02T11:16:27.719Z,50.29
2016-12-02T11:17:36.406Z,50.76
2016-12-02T11:18:45.130Z,50.48
2016-12-02T11:19:53.926Z,49.63
2016-12-02T11:21:02.618Z,49.37
2016-12-02T11:22:11.309Z,49.46
2016-12-02T11:23:19.997Z,49.55
2016-12-02T11:24:28.683Z,48.61
2016-12-02T11:25:37.440Z,48.51
2016-12-02T11:26:46.284Z,48.51
2016-12-02T11:27:55.396Z,49.74
2016-12-02T11:29:04.094Z,48.99
2016-12-02T11:30:12.809Z,49.08
2016-12-02T11:31:21.705Z,48.61
2016-12-02T11:32:30.406Z,48.61
2016-12-02T11:33:39.095Z,48.25
2016-12-02T11:34:47.786Z,47.49
2016-12-02T11:35:56.481Z,47.58
2016-12-02T11:37:05.173Z,47.39
2016-12-02T11:38:13.863Z,47.77
2016-12-02T11:39:22.550Z,47.3
2016-12-02T11:40:31.550Z,47.39
2016-12-02T11:41:40.557Z,47.39
2016-12-02T11:42:49.248Z,47.49
2016-12-02T11:43:57.934Z,47.49
2016-12-02T11:45:06.630Z,47.58
2016-12-02T11:46:15.321Z,47.58
2016-12-02T11:47:24.010Z,47.58
2016-12-02T11:48:32.732Z,47.58
2016-12-02T11:49:41.423Z,46.92
2016-12-02T11:50:50.123Z,47.2
2016-12-02T11:51:58.822Z,47.49
2016-12-02T11:53:07.517Z,47.02
2016-12-02T11:54:16.207Z,46.47
2016-12-02T11:55:24.902Z,46.47
2016-12-02T11:56:33.603Z,46.73
2016-12-02T11:57:42.291Z,46.37
2016-12-02T11:58:50.986Z,45.9
2016-12-02T12:00:00.000Z,46.37
2016-12-02T12:01:08.694Z,46.25
2016-12-02T12:02:17.384Z,46.19
2016-12-02T12:03:26.076Z,45.52
2016-12-02T12:04:34.770Z,45.14
2016-12-02T12:05:43.464Z,44.85
2016-12-02T12:06:52.173Z,44.67
2016-12-02T12:08:00.866Z,44.76
2016-12-02T12:09:09.553Z,44.85
2016-12-02T12:10:18.239Z,45.14
2016-12-02T12:11:26.955Z,45.04
2016-12-02T12:12:35.647Z,45.14
2016-12-02T12:13:44.337Z,45.14
2016-12-02T12:14:53.025Z,46.09
2016-12-02T12:16:02.040Z,45.87
2016-12-02T12:17:10.741Z,46.16
2016-12-02T12:18:19.437Z,45.78
2016-12-02T12:19:28.443Z,45.59
2016-12-02T12:20:37.137Z,45.21
2016-12-02T12:21:45.833Z,45.68
2016-12-02T12:22:54.524Z,46.16
2016-12-02T12:24:03.216Z,46.35
2016-12-02T12:25:11.909Z,46.35
2016-12-02T12:26:20.602Z,46.99
2016-12-02T12:27:29.608Z,46.99
2016-12-02T12:28:38.298Z,46.33
2016-12-02T12:29:46.986Z,46.8
2016-12-02T12:30:55.677Z,47.09
2016-12-02T12:32:04.369Z,47.47
2016-12-02T12:33:13.061Z,47.56
2016-12-02T12:34:21.756Z,46.14
2016-12-02T12:35:30.761Z,46.16
2016-12-02T12:36:39.453Z,44.83
2016-12-02T12:37:48.152Z,44.83
2016-12-02T12:38:56.840Z,44.47
2016-12-02T12:40:05.856Z,44.28
2016-12-02T12:41:14.549Z,44.73
2016-12-02T12:42:23.252Z,45.02
2016-12-02T12:43:32.267Z,44.28
2016-12-02T12:44:40.959Z,44.45
2016-12-02T12:45:49.650Z,44.64
2016-12-02T12:46:58.341Z,45.31
2016-12-02T12:48:07.039Z,46.35
2016-12-02T12:49:15.728Z,47.18
2016-12-02T12:50:24.415Z,49.43
2016-12-02T12:51:33.100Z,50.83
2016-12-02T12:52:41.795Z,50.07
2016-12-02T12:53:50.493Z,49.05
2016-12-02T12:54:59.182Z,48.32
2016-12-02T12:56:08.186Z,46.9
2016-12-02T12:57:16.876Z,45.97
2016-12-02T12:58:25.567Z,44.64
2016-12-02T12:59:34.255Z,44.07
2016-12-02T13:00:42.956Z,44.93
2016-12-02T13:01:51.655Z,44.64
2016-12-02T13:03:00.352Z,44.54
2016-12-02T13:04:09.043Z,44.35
2016-12-02T13:05:17.734Z,43.88
2016-12-02T13:06:26.424Z,44.54
2016-12-02T13:07:35.430Z,44.73
2016-12-02T13:08:44.135Z,44.54
2016-12-02T13:09:52.825Z,46.33
2016-12-02T13:11:01.516Z,48.3
2016-12-02T13:12:10.207Z,50.26
2016-12-02T13:13:18.904Z,52.7
2016-12-02T13:14:27.622Z,54.19
2016-12-02T13:15:36.316Z,55.62
2016-12-02T13:16:45.011Z,56.82
2016-12-02T13:17:53.703Z,57.48
2016-12-02T13:19:02.392Z,58.81
2016-12-02T13:20:11.080Z,59.28
2016-12-02T13:21:19.790Z,60.29
2016-12-02T13:22:28.476Z,61.15
2016-12-02T13:23:37.166Z,61.15
2016-12-02T13:24:45.882Z,62.09
2016-12-02T13:25:54.578Z,62.09
2016-12-02T13:27:03.271Z,62.56
2016-12-02T13:28:11.961Z,63.23
2016-12-02T13:29:20.646Z,63.57
2016-12-02T13:30:29.336Z,64.33
2016-12-02T13:31:38.024Z,64.8
2016-12-02T13:32:46.740Z,64.9
2016-12-02T13:33:55.431Z,65.56
2016-12-02T13:35:04.135Z,65.56
2016-12-02T13:36:13.136Z,65.28
2016-12-02T13:37:21.825Z,64.8
2016-12-02T13:38:30.517Z,64.42
2016-12-02T13:39:39.209Z,65.09
2016-12-02T13:40:47.921Z,65.18
2016-12-02T13:41:56.607Z,65.37
2016-12-02T13:43:05.297Z,65.37
2016-12-02T13:44:13.982Z,64.99
2016-12-02T13:45:22.668Z,66.03
2016-12-02T13:46:31.357Z,65.75
2016-12-02T13:47:40.047Z,66.03
2016-12-02T13:48:48.739Z,66.31
2016-12-02T13:49:57.457Z,66.13
2016-12-02T13:51:06.148Z,66.22
2016-12-02T13:52:14.837Z,66.79
2016-12-02T13:53:23.524Z,66.5
2016-12-02T13:54:32.209Z,66.69
2016-12-02T13:55:40.896Z,66.69
2016-12-02T13:56:49.588Z,66.5
2016-12-02T13:57:58.278Z,67.45
2016-12-02T13:59:06.965Z,67.26
2016-12-02T14:00:15.647Z,67.07
2016-12-02T14:01:24.343Z,66.6
2016-12-02T14:02:33.025Z,66.03
2016-12-02T14:03:41.711Z,65.75
2016-12-02T14:04:50.402Z,66.31
2016-12-02T14:05:59.085Z,66.13
2016-12-02T14:07:07.781Z,66.41
2016-12-02T14:08:16.478Z,66.41
2016-12-02T14:09:25.164Z,66.31
2016-12-02T14:10:33.852Z,66.88
2016-12-02T14:11:42.537Z,66.88
2016-12-02T14:12:51.220Z,67.55
2016-12-02T14:13:59.906Z,67.55
2016-12-02T14:15:08.587Z,68.21
2016-12-02T14:16:17.270Z,67.74
2016-12-02T14:17:25.956Z,68.59
2016-12-02T14:18:34.643Z,68.3
2016-12-02T14:19:43.334Z,68.21
2016-12-02T14:20:52.015Z,67.83
2016-12-02T14:22:00.705Z,67.93
2016-12-02T14:23:09.391Z,67.83
2016-12-02T14:24:18.080Z,67.26
2016-12-02T14:25:26.761Z,67.07
2016-12-02T14:26:35.439Z,67.55
2016-12-02T14:27:44.125Z,67.74
2016-12-02T14:28:52.811Z,67.83
2016-12-02T14:30:01.495Z,67.93
2016-12-02T14:31:10.183Z,67.74
2016-12-02T14:32:19.186Z,67.64
2016-12-02T14:33:27.880Z,67.74
2016-12-02T14:34:36.561Z,67.93
2016-12-02T14:35:45.242Z,68.3
2016-12-02T14:36:53.926Z,68.65
2016-12-02T14:38:02.620Z,69.31
2016-12-02T14:39:11.623Z,69.31
2016-12-02T14:40:20.311Z,69.12
2016-12-02T14:41:29.002Z,69.4
2016-12-02T14:42:37.684Z,69.12
2016-12-02T14:43:46.369Z,69.49
2016-12-02T14:44:55.049Z,69.97
2016-12-02T14:46:03.732Z,69.87
2016-12-02T14:47:12.414Z,69.78